sensor_id;sensor_type;location;lat;lon;timestamp;temperature;humidity
18384;DHT22;9318;48.644;9.456;2023-03-19T00:01:26;9.50;99.90
18384;DHT22;9318;48.644;9.456;2023-03-19T00:03:53;9.50;99.90
18384;DHT22;9318;48.644;9.456;2023-03-19T00:06:20;9.50;99.90
18384;DHT22;9318;48.644;9.456;2023-03-19T00:08:48;9.50;99.90
18384;DHT22;9318;48.644;9.456;2023-03-19T00:11:15;9.50;99.90
18384;DHT22;9318;48.644;9.456;2023-03-19T00:13:42;9.50;99.90
18384;DHT22;9318;48.644;9.456;2023-03-19T00:16:08;9.50;99.90
18384;DHT22;9318;48.644;9.456;2023-03-19T00:18:35;9.50;99.90
18384;DHT22;9318;48.644;9.456;2023-03-19T00:21:02;9.50;99.90
18384;DHT22;9318;48.644;9.456;2023-03-19T00:23:29;9.50;99.90
18384;DHT22;9318;48.644;9.456;2023-03-19T00:25:58;9.50;99.90
18384;DHT22;9318;48.644;9.456;2023-03-19T00:28:25;9.50;99.90
18384;DHT22;9318;48.644;9.456;2023-03-19T00:30:52;9.50;99.90
18384;DHT22;9318;48.644;9.456;2023-03-19T00:33:19;9.50;99.90
18384;DHT22;9318;48.644;9.456;2023-03-19T00:35:46;9.50;99.90
18384;DHT22;9318;48.644;9.456;2023-03-19T00:38:13;9.50;99.90
18384;DHT22;9318;48.644;9.456;2023-03-19T00:40:40;9.50;99.90
18384;DHT22;9318;48.644;9.456;2023-03-19T00:43:08;9.50;99.90
18384;DHT22;9318;48.644;9.456;2023-03-19T00:45:35;9.50;99.90
18384;DHT22;9318;48.644;9.456;2023-03-19T00:48:03;9.60;99.90
18384;DHT22;9318;48.644;9.456;2023-03-19T00:50:30;9.60;99.90
18384;DHT22;9318;48.644;9.456;2023-03-19T00:52:56;9.60;99.90
18384;DHT22;9318;48.644;9.456;2023-03-19T00:55:23;9.60;99.90
18384;DHT22;9318;48.644;9.456;2023-03-19T00:57:51;9.60;99.90
18384;DHT22;9318;48.644;9.456;2023-03-19T01:00:20;9.60;99.90
18384;DHT22;9318;48.644;9.456;2023-03-19T01:02:47;9.60;99.90
18384;DHT22;9318;48.644;9.456;2023-03-19T01:05:13;9.60;99.90
18384;DHT22;9318;48.644;9.456;2023-03-19T01:07:40;9.50;99.90
18384;DHT22;9318;48.644;9.456;2023-03-19T01:10:08;9.50;99.90
18384;DHT22;9318;48.644;9.456;2023-03-19T01:12:35;9.50;99.90
18384;DHT22;9318;48.644;9.456;2023-03-19T01:15:03;9.40;99.90
18384;DHT22;9318;48.644;9.456;2023-03-19T01:17:32;9.40;99.90
18384;DHT22;9318;48.644;9.456;2023-03-19T01:20:00;9.40;99.90
18384;DHT22;9318;48.644;9.456;2023-03-19T01:22:26;9.40;99.90
18384;DHT22;9318;48.644;9.456;2023-03-19T01:24:53;9.40;99.90
18384;DHT22;9318;48.644;9.456;2023-03-19T01:27:20;9.50;99.90
18384;DHT22;9318;48.644;9.456;2023-03-19T01:29:47;9.40;99.90
18384;DHT22;9318;48.644;9.456;2023-03-19T01:32:14;9.40;99.90
18384;DHT22;9318;48.644;9.456;2023-03-19T01:34:42;9.40;99.90
18384;DHT22;9318;48.644;9.456;2023-03-19T01:37:08;9.40;99.90
18384;DHT22;9318;48.644;9.456;2023-03-19T01:39:35;9.30;99.90
18384;DHT22;9318;48.644;9.456;2023-03-19T01:42:03;9.30;99.90
18384;DHT22;9318;48.644;9.456;2023-03-19T01:44:31;9.30;99.90
18384;DHT22;9318;48.644;9.456;2023-03-19T01:47:02;9.20;99.90
18384;DHT22;9318;48.644;9.456;2023-03-19T01:49:30;9.30;99.90
18384;DHT22;9318;48.644;9.456;2023-03-19T01:52:01;9.20;99.90
18384;DHT22;9318;48.644;9.456;2023-03-19T01:54:30;9.30;99.90
18384;DHT22;9318;48.644;9.456;2023-03-19T01:57:01;9.30;99.90
18384;DHT22;9318;48.644;9.456;2023-03-19T01:59:31;9.40;99.90
18384;DHT22;9318;48.644;9.456;2023-03-19T02:02:02;9.40;99.90
18384;DHT22;9318;48.644;9.456;2023-03-19T02:04:30;9.30;99.90
18384;DHT22;9318;48.644;9.456;2023-03-19T02:07:00;9.20;99.90
18384;DHT22;9318;48.644;9.456;2023-03-19T02:09:28;9.20;99.90
18384;DHT22;9318;48.644;9.456;2023-03-19T02:11:56;9.20;99.90
18384;DHT22;9318;48.644;9.456;2023-03-19T02:14:23;9.20;99.90
18384;DHT22;9318;48.644;9.456;2023-03-19T02:16:50;9.10;99.90
18384;DHT22;9318;48.644;9.456;2023-03-19T02:19:21;9.10;99.90
18384;DHT22;9318;48.644;9.456;2023-03-19T02:21:52;9.20;99.90
18384;DHT22;9318;48.644;9.456;2023-03-19T02:24:24;9.20;99.90
18384;DHT22;9318;48.644;9.456;2023-03-19T02:26:53;9.20;99.90
18384;DHT22;9318;48.644;9.456;2023-03-19T02:29:20;9.10;99.90
18384;DHT22;9318;48.644;9.456;2023-03-19T02:31:47;9.20;99.90
18384;DHT22;9318;48.644;9.456;2023-03-19T02:34:32;9.20;99.90
18384;DHT22;9318;48.644;9.456;2023-03-19T02:37:02;9.20;99.90
18384;DHT22;9318;48.644;9.456;2023-03-19T02:39:34;9.20;99.90
18384;DHT22;9318;48.644;9.456;2023-03-19T02:42:05;9.20;99.90
18384;DHT22;9318;48.644;9.456;2023-03-19T02:44:33;9.20;99.90
18384;DHT22;9318;48.644;9.456;2023-03-19T02:47:00;9.20;99.90
18384;DHT22;9318;48.644;9.456;2023-03-19T02:49:26;9.20;99.90
18384;DHT22;9318;48.644;9.456;2023-03-19T02:51:53;9.30;99.90
18384;DHT22;9318;48.644;9.456;2023-03-19T02:54:20;9.30;99.90
18384;DHT22;9318;48.644;9.456;2023-03-19T02:56:47;9.30;99.90
18384;DHT22;9318;48.644;9.456;2023-03-19T02:59:16;9.30;99.90
18384;DHT22;9318;48.644;9.456;2023-03-19T03:01:42;9.20;99.90
18384;DHT22;9318;48.644;9.456;2023-03-19T03:04:09;9.20;99.90
18384;DHT22;9318;48.644;9.456;2023-03-19T03:06:36;9.30;99.90
18384;DHT22;9318;48.644;9.456;2023-03-19T03:09:03;9.30;99.90
18384;DHT22;9318;48.644;9.456;2023-03-19T03:11:30;9.30;99.90
18384;DHT22;9318;48.644;9.456;2023-03-19T03:13:56;9.30;99.90
18384;DHT22;9318;48.644;9.456;2023-03-19T03:16:25;9.30;99.90
18384;DHT22;9318;48.644;9.456;2023-03-19T03:18:52;9.30;99.90
18384;DHT22;9318;48.644;9.456;2023-03-19T03:21:19;9.30;99.90
18384;DHT22;9318;48.644;9.456;2023-03-19T03:23:46;9.30;99.90
18384;DHT22;9318;48.644;9.456;2023-03-19T03:26:13;9.30;99.90
18384;DHT22;9318;48.644;9.456;2023-03-19T03:28:39;9.30;99.90
18384;DHT22;9318;48.644;9.456;2023-03-19T03:31:06;9.30;99.90
18384;DHT22;9318;48.644;9.456;2023-03-19T03:33:35;9.10;99.90
18384;DHT22;9318;48.644;9.456;2023-03-19T03:36:02;9.10;99.90
18384;DHT22;9318;48.644;9.456;2023-03-19T03:38:29;9.10;99.90
18384;DHT22;9318;48.644;9.456;2023-03-19T03:40:57;9.10;99.90
18384;DHT22;9318;48.644;9.456;2023-03-19T03:43:24;9.10;99.90
18384;DHT22;9318;48.644;9.456;2023-03-19T03:45:51;9.10;99.90
18384;DHT22;9318;48.644;9.456;2023-03-19T03:48:18;9.10;99.90
18384;DHT22;9318;48.644;9.456;2023-03-19T03:50:46;9.10;99.90
18384;DHT22;9318;48.644;9.456;2023-03-19T03:53:12;9.10;99.90
18384;DHT22;9318;48.644;9.456;2023-03-19T03:55:40;9.10;99.90
18384;DHT22;9318;48.644;9.456;2023-03-19T03:58:07;9.10;99.90
18384;DHT22;9318;48.644;9.456;2023-03-19T04:00:33;9.20;99.90
18384;DHT22;9318;48.644;9.456;2023-03-19T04:03:00;8.90;99.90
18384;DHT22;9318;48.644;9.456;2023-03-19T04:05:27;8.70;99.90
18384;DHT22;9318;48.644;9.456;2023-03-19T04:07:55;8.60;99.90
18384;DHT22;9318;48.644;9.456;2023-03-19T04:10:23;8.50;99.90
18384;DHT22;9318;48.644;9.456;2023-03-19T04:12:50;8.60;99.90
18384;DHT22;9318;48.644;9.456;2023-03-19T04:15:17;8.70;99.90
18384;DHT22;9318;48.644;9.456;2023-03-19T04:17:43;8.60;99.90
18384;DHT22;9318;48.644;9.456;2023-03-19T04:20:11;8.60;99.90
18384;DHT22;9318;48.644;9.456;2023-03-19T04:22:38;8.60;99.90
18384;DHT22;9318;48.644;9.456;2023-03-19T04:25:08;8.50;99.90
18384;DHT22;9318;48.644;9.456;2023-03-19T04:27:35;8.50;99.90
18384;DHT22;9318;48.644;9.456;2023-03-19T04:30:02;8.50;99.90
18384;DHT22;9318;48.644;9.456;2023-03-19T04:32:29;8.50;99.90
18384;DHT22;9318;48.644;9.456;2023-03-19T04:34:56;8.40;99.90
18384;DHT22;9318;48.644;9.456;2023-03-19T04:37:23;8.30;99.90
18384;DHT22;9318;48.644;9.456;2023-03-19T04:39:50;8.30;99.90
18384;DHT22;9318;48.644;9.456;2023-03-19T04:42:20;8.30;99.90
18384;DHT22;9318;48.644;9.456;2023-03-19T04:44:47;8.30;99.90
18384;DHT22;9318;48.644;9.456;2023-03-19T04:47:14;8.30;99.90
18384;DHT22;9318;48.644;9.456;2023-03-19T04:49:41;8.40;99.90
18384;DHT22;9318;48.644;9.456;2023-03-19T04:52:08;8.40;99.90
18384;DHT22;9318;48.644;9.456;2023-03-19T04:54:35;8.40;99.90
18384;DHT22;9318;48.644;9.456;2023-03-19T04:57:01;8.30;99.90
18384;DHT22;9318;48.644;9.456;2023-03-19T04:59:29;8.30;99.90
18384;DHT22;9318;48.644;9.456;2023-03-19T05:01:56;8.30;99.90
18384;DHT22;9318;48.644;9.456;2023-03-19T05:04:23;8.30;99.90
18384;DHT22;9318;48.644;9.456;2023-03-19T05:06:51;8.30;99.90
18384;DHT22;9318;48.644;9.456;2023-03-19T05:09:18;8.40;99.90
18384;DHT22;9318;48.644;9.456;2023-03-19T05:11:45;8.30;99.90
18384;DHT22;9318;48.644;9.456;2023-03-19T05:14:11;8.40;99.90
18384;DHT22;9318;48.644;9.456;2023-03-19T05:16:40;8.40;99.90
18384;DHT22;9318;48.644;9.456;2023-03-19T05:19:06;8.40;99.90
18384;DHT22;9318;48.644;9.456;2023-03-19T05:21:33;8.50;99.90
18384;DHT22;9318;48.644;9.456;2023-03-19T05:24:00;8.50;99.90
18384;DHT22;9318;48.644;9.456;2023-03-19T05:26:27;8.50;99.90
18384;DHT22;9318;48.644;9.456;2023-03-19T05:28:53;8.40;99.90
18384;DHT22;9318;48.644;9.456;2023-03-19T05:31:21;8.50;99.90
18384;DHT22;9318;48.644;9.456;2023-03-19T05:33:49;8.50;99.90
18384;DHT22;9318;48.644;9.456;2023-03-19T05:36:16;8.50;99.90
18384;DHT22;9318;48.644;9.456;2023-03-19T05:38:43;8.60;99.90
18384;DHT22;9318;48.644;9.456;2023-03-19T05:41:10;8.60;99.90
18384;DHT22;9318;48.644;9.456;2023-03-19T05:43:37;8.60;99.90
18384;DHT22;9318;48.644;9.456;2023-03-19T05:46:04;8.60;99.90
18384;DHT22;9318;48.644;9.456;2023-03-19T05:48:31;8.60;99.90
18384;DHT22;9318;48.644;9.456;2023-03-19T05:50:59;8.60;99.90
18384;DHT22;9318;48.644;9.456;2023-03-19T05:53:26;8.60;99.90
18384;DHT22;9318;48.644;9.456;2023-03-19T05:55:53;8.60;99.90
18384;DHT22;9318;48.644;9.456;2023-03-19T05:58:19;8.60;99.90
18384;DHT22;9318;48.644;9.456;2023-03-19T06:00:46;8.60;99.90
18384;DHT22;9318;48.644;9.456;2023-03-19T06:03:13;8.60;99.90
18384;DHT22;9318;48.644;9.456;2023-03-19T06:05:41;8.60;99.90
18384;DHT22;9318;48.644;9.456;2023-03-19T06:08:09;8.60;99.90
18384;DHT22;9318;48.644;9.456;2023-03-19T06:10:35;8.60;99.90
18384;DHT22;9318;48.644;9.456;2023-03-19T06:13:02;8.70;99.90
18384;DHT22;9318;48.644;9.456;2023-03-19T06:15:29;8.70;99.90
18384;DHT22;9318;48.644;9.456;2023-03-19T06:17:56;8.70;99.90
18384;DHT22;9318;48.644;9.456;2023-03-19T06:20:23;8.70;99.90
18384;DHT22;9318;48.644;9.456;2023-03-19T06:22:50;8.70;99.90
18384;DHT22;9318;48.644;9.456;2023-03-19T06:25:18;8.70;99.90
18384;DHT22;9318;48.644;9.456;2023-03-19T06:27:46;8.80;99.90
18384;DHT22;9318;48.644;9.456;2023-03-19T06:30:13;8.80;99.90
18384;DHT22;9318;48.644;9.456;2023-03-19T06:32:40;8.80;99.90
18384;DHT22;9318;48.644;9.456;2023-03-19T06:35:07;8.90;99.90
18384;DHT22;9318;48.644;9.456;2023-03-19T06:37:34;8.90;99.90
18384;DHT22;9318;48.644;9.456;2023-03-19T06:40:02;8.80;99.90
18384;DHT22;9318;48.644;9.456;2023-03-19T06:42:31;8.80;99.90
18384;DHT22;9318;48.644;9.456;2023-03-19T06:44:58;8.90;99.90
18384;DHT22;9318;48.644;9.456;2023-03-19T06:47:25;8.90;99.90
18384;DHT22;9318;48.644;9.456;2023-03-19T06:49:52;9.00;99.90
18384;DHT22;9318;48.644;9.456;2023-03-19T06:52:19;9.00;99.90
18384;DHT22;9318;48.644;9.456;2023-03-19T06:54:46;9.10;99.90
18384;DHT22;9318;48.644;9.456;2023-03-19T06:57:13;9.10;99.90
18384;DHT22;9318;48.644;9.456;2023-03-19T06:59:41;9.20;99.90
18384;DHT22;9318;48.644;9.456;2023-03-19T07:02:09;9.30;99.90
18384;DHT22;9318;48.644;9.456;2023-03-19T07:04:36;9.40;99.90
18384;DHT22;9318;48.644;9.456;2023-03-19T07:07:03;9.50;99.90
18384;DHT22;9318;48.644;9.456;2023-03-19T07:09:30;9.50;99.90
18384;DHT22;9318;48.644;9.456;2023-03-19T07:11:57;9.60;99.90
18384;DHT22;9318;48.644;9.456;2023-03-19T07:14:24;9.60;99.90
18384;DHT22;9318;48.644;9.456;2023-03-19T07:16:52;9.50;99.90
18384;DHT22;9318;48.644;9.456;2023-03-19T07:19:19;9.60;99.90
18384;DHT22;9318;48.644;9.456;2023-03-19T07:21:46;9.60;99.90
18384;DHT22;9318;48.644;9.456;2023-03-19T07:24:13;9.60;99.90
18384;DHT22;9318;48.644;9.456;2023-03-19T07:26:39;9.60;99.90
18384;DHT22;9318;48.644;9.456;2023-03-19T07:29:07;9.70;99.90
18384;DHT22;9318;48.644;9.456;2023-03-19T07:31:33;9.60;99.90
18384;DHT22;9318;48.644;9.456;2023-03-19T07:34:02;9.80;99.90
18384;DHT22;9318;48.644;9.456;2023-03-19T07:36:28;9.90;99.90
18384;DHT22;9318;48.644;9.456;2023-03-19T07:38:55;10.00;99.90
18384;DHT22;9318;48.644;9.456;2023-03-19T07:41:23;10.20;99.90
18384;DHT22;9318;48.644;9.456;2023-03-19T07:43:50;10.30;99.90
18384;DHT22;9318;48.644;9.456;2023-03-19T07:46:17;10.40;99.90
18384;DHT22;9318;48.644;9.456;2023-03-19T07:48:43;10.50;99.90
18384;DHT22;9318;48.644;9.456;2023-03-19T07:51:11;10.60;99.90
18384;DHT22;9318;48.644;9.456;2023-03-19T07:53:38;10.70;99.90
18384;DHT22;9318;48.644;9.456;2023-03-19T07:56:06;10.90;99.90
18384;DHT22;9318;48.644;9.456;2023-03-19T07:58:32;11.00;99.90
18384;DHT22;9318;48.644;9.456;2023-03-19T08:00:59;11.00;99.90
18384;DHT22;9318;48.644;9.456;2023-03-19T08:03:26;11.20;99.90
18384;DHT22;9318;48.644;9.456;2023-03-19T08:05:53;11.20;99.90
18384;DHT22;9318;48.644;9.456;2023-03-19T08:08:21;11.30;99.90
18384;DHT22;9318;48.644;9.456;2023-03-19T08:10:48;11.20;99.90
18384;DHT22;9318;48.644;9.456;2023-03-19T08:13:15;11.20;99.90
18384;DHT22;9318;48.644;9.456;2023-03-19T08:15:42;11.10;99.90
18384;DHT22;9318;48.644;9.456;2023-03-19T08:18:08;11.10;99.90
18384;DHT22;9318;48.644;9.456;2023-03-19T08:20:35;11.20;99.90
18384;DHT22;9318;48.644;9.456;2023-03-19T08:23:02;11.30;99.90
18384;DHT22;9318;48.644;9.456;2023-03-19T08:25:30;11.40;99.90
18384;DHT22;9318;48.644;9.456;2023-03-19T08:27:57;11.50;99.90
18384;DHT22;9318;48.644;9.456;2023-03-19T08:30:24;11.70;99.90
18384;DHT22;9318;48.644;9.456;2023-03-19T08:32:51;11.80;99.90
18384;DHT22;9318;48.644;9.456;2023-03-19T08:35:18;11.90;99.90
18384;DHT22;9318;48.644;9.456;2023-03-19T08:37:45;12.00;99.90
18384;DHT22;9318;48.644;9.456;2023-03-19T08:40:12;12.00;99.90
18384;DHT22;9318;48.644;9.456;2023-03-19T08:42:40;12.20;99.90
18384;DHT22;9318;48.644;9.456;2023-03-19T08:45:08;12.30;99.90
18384;DHT22;9318;48.644;9.456;2023-03-19T08:47:35;12.40;99.90
18384;DHT22;9318;48.644;9.456;2023-03-19T08:50:03;12.50;99.90
18384;DHT22;9318;48.644;9.456;2023-03-19T08:52:30;12.70;99.90
18384;DHT22;9318;48.644;9.456;2023-03-19T08:54:56;12.80;99.90
18384;DHT22;9318;48.644;9.456;2023-03-19T08:57:23;12.90;99.90
18384;DHT22;9318;48.644;9.456;2023-03-19T08:59:52;13.00;99.90
18384;DHT22;9318;48.644;9.456;2023-03-19T09:02:19;13.00;99.90
18384;DHT22;9318;48.644;9.456;2023-03-19T09:04:46;13.00;99.90
18384;DHT22;9318;48.644;9.456;2023-03-19T09:07:13;13.10;99.90
18384;DHT22;9318;48.644;9.456;2023-03-19T09:09:41;13.10;99.90
18384;DHT22;9318;48.644;9.456;2023-03-19T09:12:09;13.20;99.90
18384;DHT22;9318;48.644;9.456;2023-03-19T09:14:36;13.20;99.90
18384;DHT22;9318;48.644;9.456;2023-03-19T09:17:06;13.30;99.90
18384;DHT22;9318;48.644;9.456;2023-03-19T09:19:33;13.30;99.90
18384;DHT22;9318;48.644;9.456;2023-03-19T09:22:00;13.30;99.90
18384;DHT22;9318;48.644;9.456;2023-03-19T09:24:26;13.20;99.90
18384;DHT22;9318;48.644;9.456;2023-03-19T09:26:53;13.40;99.90
18384;DHT22;9318;48.644;9.456;2023-03-19T09:29:20;13.60;99.90
18384;DHT22;9318;48.644;9.456;2023-03-19T09:31:47;13.90;99.90
18384;DHT22;9318;48.644;9.456;2023-03-19T09:34:15;14.60;99.90
18384;DHT22;9318;48.644;9.456;2023-03-19T09:36:43;16.40;99.90
18384;DHT22;9318;48.644;9.456;2023-03-19T09:39:09;17.70;99.90
18384;DHT22;9318;48.644;9.456;2023-03-19T09:41:48;20.10;99.90
18384;DHT22;9318;48.644;9.456;2023-03-19T09:44:21;23.30;99.90
18384;DHT22;9318;48.644;9.456;2023-03-19T09:46:55;26.30;95.70
18384;DHT22;9318;48.644;9.456;2023-03-19T09:49:27;28.40;85.60
18384;DHT22;9318;48.644;9.456;2023-03-19T09:51:56;30.50;74.00
18384;DHT22;9318;48.644;9.456;2023-03-19T09:54:32;32.40;66.30
18384;DHT22;9318;48.644;9.456;2023-03-19T09:57:00;32.00;61.50
18384;DHT22;9318;48.644;9.456;2023-03-19T09:59:27;29.30;62.10
18384;DHT22;9318;48.644;9.456;2023-03-19T10:02:03;27.00;63.30
18384;DHT22;9318;48.644;9.456;2023-03-19T10:04:50;27.00;64.80
18384;DHT22;9318;48.644;9.456;2023-03-19T10:07:37;28.00;65.30
18384;DHT22;9318;48.644;9.456;2023-03-19T10:10:26;29.00;66.30
18384;DHT22;9318;48.644;9.456;2023-03-19T10:13:06;30.70;62.60
18384;DHT22;9318;48.644;9.456;2023-03-19T10:15:36;32.50;59.30
18384;DHT22;9318;48.644;9.456;2023-03-19T10:18:07;31.70;53.30
18384;DHT22;9318;48.644;9.456;2023-03-19T10:20:47;29.60;55.00
18384;DHT22;9318;48.644;9.456;2023-03-19T10:23:33;27.20;59.40
18384;DHT22;9318;48.644;9.456;2023-03-19T10:26:03;25.50;62.50
18384;DHT22;9318;48.644;9.456;2023-03-19T10:28:31;24.00;64.80
18384;DHT22;9318;48.644;9.456;2023-03-19T10:31:11;22.60;66.30
18384;DHT22;9318;48.644;9.456;2023-03-19T10:33:42;22.50;71.10
18384;DHT22;9318;48.644;9.456;2023-03-19T10:36:12;22.40;68.80
18384;DHT22;9318;48.644;9.456;2023-03-19T10:38:40;22.50;69.60
18384;DHT22;9318;48.644;9.456;2023-03-19T10:41:23;22.10;70.70
18384;DHT22;9318;48.644;9.456;2023-03-19T10:43:55;21.80;69.50
18384;DHT22;9318;48.644;9.456;2023-03-19T10:46:22;21.30;71.80
18384;DHT22;9318;48.644;9.456;2023-03-19T10:48:49;21.30;70.00
18384;DHT22;9318;48.644;9.456;2023-03-19T10:51:20;21.00;70.60
18384;DHT22;9318;48.644;9.456;2023-03-19T10:53:48;20.70;73.20
18384;DHT22;9318;48.644;9.456;2023-03-19T10:56:20;20.40;70.10
18384;DHT22;9318;48.644;9.456;2023-03-19T10:58:58;19.90;71.70
18384;DHT22;9318;48.644;9.456;2023-03-19T11:01:27;19.60;73.80
18384;DHT22;9318;48.644;9.456;2023-03-19T11:03:57;19.40;76.00
18384;DHT22;9318;48.644;9.456;2023-03-19T11:06:29;19.40;78.00
18384;DHT22;9318;48.644;9.456;2023-03-19T11:08:58;19.40;78.50
18384;DHT22;9318;48.644;9.456;2023-03-19T11:11:32;19.20;79.00
18384;DHT22;9318;48.644;9.456;2023-03-19T11:14:06;19.40;80.50
18384;DHT22;9318;48.644;9.456;2023-03-19T11:16:49;19.50;79.60
18384;DHT22;9318;48.644;9.456;2023-03-19T11:19:19;19.40;80.70
18384;DHT22;9318;48.644;9.456;2023-03-19T11:21:59;18.80;80.10
18384;DHT22;9318;48.644;9.456;2023-03-19T11:24:30;18.60;79.80
18384;DHT22;9318;48.644;9.456;2023-03-19T11:26:58;18.40;82.80
18384;DHT22;9318;48.644;9.456;2023-03-19T11:29:26;18.30;83.20
18384;DHT22;9318;48.644;9.456;2023-03-19T11:31:59;18.40;82.50
18384;DHT22;9318;48.644;9.456;2023-03-19T11:34:32;18.40;86.00
18384;DHT22;9318;48.644;9.456;2023-03-19T11:37:08;18.60;85.40
18384;DHT22;9318;48.644;9.456;2023-03-19T11:39:44;18.80;83.00
18384;DHT22;9318;48.644;9.456;2023-03-19T11:45:23;19.10;81.80
18384;DHT22;9318;48.644;9.456;2023-03-19T11:48:02;19.30;84.60
18384;DHT22;9318;48.644;9.456;2023-03-19T11:50:37;19.30;80.40
18384;DHT22;9318;48.644;9.456;2023-03-19T11:53:17;19.30;85.40
18384;DHT22;9318;48.644;9.456;2023-03-19T11:55:52;19.30;84.40
18384;DHT22;9318;48.644;9.456;2023-03-19T12:01:37;19.30;83.50
18384;DHT22;9318;48.644;9.456;2023-03-19T12:04:30;19.50;84.30
18384;DHT22;9318;48.644;9.456;2023-03-19T12:07:07;19.70;85.00
18384;DHT22;9318;48.644;9.456;2023-03-19T12:09:41;19.90;84.80
18384;DHT22;9318;48.644;9.456;2023-03-19T12:12:18;20.00;84.80
18384;DHT22;9318;48.644;9.456;2023-03-19T12:15:00;19.90;79.10
18384;DHT22;9318;48.644;9.456;2023-03-19T12:17:45;19.70;81.70
18384;DHT22;9318;48.644;9.456;2023-03-19T12:20:24;19.50;81.00
18384;DHT22;9318;48.644;9.456;2023-03-19T12:23:03;19.20;81.50
18384;DHT22;9318;48.644;9.456;2023-03-19T12:25:43;19.10;82.10
18384;DHT22;9318;48.644;9.456;2023-03-19T12:28:17;19.20;82.80
18384;DHT22;9318;48.644;9.456;2023-03-19T12:30:59;19.40;84.30
18384;DHT22;9318;48.644;9.456;2023-03-19T12:33:35;19.80;81.80
18384;DHT22;9318;48.644;9.456;2023-03-19T12:36:10;19.90;79.80
18384;DHT22;9318;48.644;9.456;2023-03-19T12:38:42;19.70;81.50
18384;DHT22;9318;48.644;9.456;2023-03-19T12:41:17;19.70;80.40
18384;DHT22;9318;48.644;9.456;2023-03-19T12:43:53;19.60;81.80
18384;DHT22;9318;48.644;9.456;2023-03-19T12:46:25;19.70;81.80
18384;DHT22;9318;48.644;9.456;2023-03-19T12:48:56;19.60;81.60
18384;DHT22;9318;48.644;9.456;2023-03-19T12:51:27;19.50;82.80
18384;DHT22;9318;48.644;9.456;2023-03-19T12:53:58;19.40;79.80
18384;DHT22;9318;48.644;9.456;2023-03-19T12:56:31;19.10;80.10
18384;DHT22;9318;48.644;9.456;2023-03-19T12:59:05;19.00;83.30
18384;DHT22;9318;48.644;9.456;2023-03-19T13:01:37;18.90;83.50
18384;DHT22;9318;48.644;9.456;2023-03-19T13:04:09;19.00;88.00
18384;DHT22;9318;48.644;9.456;2023-03-19T13:06:39;19.40;82.90
18384;DHT22;9318;48.644;9.456;2023-03-19T13:09:14;19.50;80.30
18384;DHT22;9318;48.644;9.456;2023-03-19T13:11:47;19.60;78.60
18384;DHT22;9318;48.644;9.456;2023-03-19T13:14:20;19.60;76.90
18384;DHT22;9318;48.644;9.456;2023-03-19T13:16:54;19.50;80.60
18384;DHT22;9318;48.644;9.456;2023-03-19T13:19:28;19.50;80.90
18384;DHT22;9318;48.644;9.456;2023-03-19T13:21:59;19.30;78.70
18384;DHT22;9318;48.644;9.456;2023-03-19T13:24:29;19.00;80.40
18384;DHT22;9318;48.644;9.456;2023-03-19T13:26:59;18.80;83.30
18384;DHT22;9318;48.644;9.456;2023-03-19T13:29:27;18.70;82.90
18384;DHT22;9318;48.644;9.456;2023-03-19T13:31:59;18.60;84.70
18384;DHT22;9318;48.644;9.456;2023-03-19T13:34:28;18.60;86.10
18384;DHT22;9318;48.644;9.456;2023-03-19T13:37:00;18.50;87.90
18384;DHT22;9318;48.644;9.456;2023-03-19T13:39:31;18.00;90.50
18384;DHT22;9318;48.644;9.456;2023-03-19T13:42:22;17.90;90.80
18384;DHT22;9318;48.644;9.456;2023-03-19T13:44:50;17.80;91.20
18384;DHT22;9318;48.644;9.456;2023-03-19T13:47:47;17.60;91.00
18384;DHT22;9318;48.644;9.456;2023-03-19T13:50:30;17.40;92.00
18384;DHT22;9318;48.644;9.456;2023-03-19T13:53:22;17.20;92.80
18384;DHT22;9318;48.644;9.456;2023-03-19T13:55:58;16.80;93.80
18384;DHT22;9318;48.644;9.456;2023-03-19T13:58:28;16.50;95.10
18384;DHT22;9318;48.644;9.456;2023-03-19T14:01:40;16.40;96.10
18384;DHT22;9318;48.644;9.456;2023-03-19T14:04:17;16.30;97.00
18384;DHT22;9318;48.644;9.456;2023-03-19T14:06:47;16.10;97.90
18384;DHT22;9318;48.644;9.456;2023-03-19T14:09:33;16.00;97.90
18384;DHT22;9318;48.644;9.456;2023-03-19T14:12:24;15.90;97.40
18384;DHT22;9318;48.644;9.456;2023-03-19T14:14:59;16.20;97.90
18384;DHT22;9318;48.644;9.456;2023-03-19T14:17:30;16.30;96.60
18384;DHT22;9318;48.644;9.456;2023-03-19T14:20:03;16.40;96.80
18384;DHT22;9318;48.644;9.456;2023-03-19T14:22:36;16.50;96.30
18384;DHT22;9318;48.644;9.456;2023-03-19T14:25:14;16.60;96.10
18384;DHT22;9318;48.644;9.456;2023-03-19T14:27:44;16.70;95.70
18384;DHT22;9318;48.644;9.456;2023-03-19T14:30:30;16.70;96.70
18384;DHT22;9318;48.644;9.456;2023-03-19T14:33:00;16.70;96.60
18384;DHT22;9318;48.644;9.456;2023-03-19T14:35:31;16.60;96.40
18384;DHT22;9318;48.644;9.456;2023-03-19T14:38:00;16.50;95.50
18384;DHT22;9318;48.644;9.456;2023-03-19T14:40:40;16.50;95.50
18384;DHT22;9318;48.644;9.456;2023-03-19T14:43:15;16.40;96.70
18384;DHT22;9318;48.644;9.456;2023-03-19T14:45:55;16.40;97.10
18384;DHT22;9318;48.644;9.456;2023-03-19T14:51:42;16.60;97.60
18384;DHT22;9318;48.644;9.456;2023-03-19T14:54:22;16.50;97.60
18384;DHT22;9318;48.644;9.456;2023-03-19T14:56:49;16.50;96.10
18384;DHT22;9318;48.644;9.456;2023-03-19T14:59:16;16.60;96.40
18384;DHT22;9318;48.644;9.456;2023-03-19T15:01:48;16.60;98.90
18384;DHT22;9318;48.644;9.456;2023-03-19T15:04:16;16.50;98.20
18384;DHT22;9318;48.644;9.456;2023-03-19T15:06:50;16.40;99.30
18384;DHT22;9318;48.644;9.456;2023-03-19T15:09:20;16.20;96.70
18384;DHT22;9318;48.644;9.456;2023-03-19T15:14:52;16.00;97.80
18384;DHT22;9318;48.644;9.456;2023-03-19T15:17:30;15.90;99.90
18384;DHT22;9318;48.644;9.456;2023-03-19T15:19:59;15.80;99.50
18384;DHT22;9318;48.644;9.456;2023-03-19T15:22:29;15.80;99.00
18384;DHT22;9318;48.644;9.456;2023-03-19T15:25:04;15.80;98.30
18384;DHT22;9318;48.644;9.456;2023-03-19T15:27:32;15.90;98.90
18384;DHT22;9318;48.644;9.456;2023-03-19T15:29:59;15.80;97.80
18384;DHT22;9318;48.644;9.456;2023-03-19T15:32:31;15.80;98.10
18384;DHT22;9318;48.644;9.456;2023-03-19T15:34:58;15.70;98.40
18384;DHT22;9318;48.644;9.456;2023-03-19T15:37:26;15.70;99.50
18384;DHT22;9318;48.644;9.456;2023-03-19T15:39:56;15.60;99.90
18384;DHT22;9318;48.644;9.456;2023-03-19T15:42:25;15.50;99.90
18384;DHT22;9318;48.644;9.456;2023-03-19T15:44:55;15.40;99.90
18384;DHT22;9318;48.644;9.456;2023-03-19T15:47:24;15.30;99.90
18384;DHT22;9318;48.644;9.456;2023-03-19T15:49:56;15.30;99.90
18384;DHT22;9318;48.644;9.456;2023-03-19T15:52:24;15.20;99.90
18384;DHT22;9318;48.644;9.456;2023-03-19T15:54:53;15.20;99.90
18384;DHT22;9318;48.644;9.456;2023-03-19T15:57:22;15.10;99.90
18384;DHT22;9318;48.644;9.456;2023-03-19T15:59:51;15.00;99.90
18384;DHT22;9318;48.644;9.456;2023-03-19T16:02:24;15.00;99.90
18384;DHT22;9318;48.644;9.456;2023-03-19T16:04:53;14.90;99.90
18384;DHT22;9318;48.644;9.456;2023-03-19T16:07:22;14.80;99.90
18384;DHT22;9318;48.644;9.456;2023-03-19T16:09:49;14.70;99.90
18384;DHT22;9318;48.644;9.456;2023-03-19T16:12:34;14.60;99.90
18384;DHT22;9318;48.644;9.456;2023-03-19T16:15:20;14.50;99.90
18384;DHT22;9318;48.644;9.456;2023-03-19T16:17:47;14.40;99.90
18384;DHT22;9318;48.644;9.456;2023-03-19T16:20:16;14.30;99.90
18384;DHT22;9318;48.644;9.456;2023-03-19T16:22:49;14.20;99.90